Valley, Nebraska
Current Conditions -  °F | °C
As of 5:55 PM on Friday 24 Oct 2014 (Local Time) from KFET Reporting Station
Clear Clear  
Wind Chill: 73°   Ceiling: Unl
Heat Index: 73°   Visibility: 10mi
Dew Point: 52°   Wind: 0mph
Humidity: 47%   Direction: NA
Pressure: 29.93"   Gusts: NA
Location:  41.31°N, 96.35°W
Report Text: KFET 242255Z AUTO 00000KT 10SM CLR 23/11 A2993 RMK AO2 T02280109
Loading
Personal Weather Stations






























Interactive Weather Map
Tropical Storm Tracking
New forecast layout! Learn more

10-Day Weather Forecast

Advertisements
Track Severe Weather on mobile